Marine Rouge — JG5115 — position and weather

sailwx.info

Track history (hours):
 
Tides and Currents Weather Stations Pressure Air Temp Water Temp Dewpoint Dewpoint Depression Visibility Wind Speed Wind Dir Waves Ship Positions

Marine Rouge

Last reported at 2015-Feb-28 12:33 UTC. Time now 2015-Feb-28 14:00 UTC.
Position N 35°27' E 139°39'.

Length 52 m; draft 2.8 m.

Type: Passenger vessel. MMSI: 431000518.

Date/timePositionNaut miles runAvg speedWind from/ knotsBaromVisibWave heightAir tempDewpointWater temp
2015-Feb-28 12:33N 35°27' E 139°39'2 1.6
2015-Feb-28 11:33N 35°28' E 139°41'1 1.4
2015-Feb-28 10:33N 35°27' E 139°39'1 0.7
2015-Feb-28 09:33N 35°27' E 139°39'1 1.2
2015-Feb-28 08:33N 35°28' E 139°40'1 1.2
2015-Feb-28 07:33N 35°27' E 139°39'1 0.5
2015-Feb-28 06:33N 35°27' E 139°39'0 0.0
2015-Feb-28 05:33N 35°27' E 139°39'0 0.0
2015-Feb-28 04:33N 35°27' E 139°39'1 0.5
2015-Feb-28 03:34N 35°27' E 139°39'1 0.5
2015-Feb-28 02:33N 35°27' E 139°39'0 0.0
2015-Feb-28 01:33N 35°27' E 139°39'0 0.0
2015-Feb-28 00:33N 35°27' E 139°39'1 0.1
2015-Feb-27 11:34N 35°28' E 139°39'1 0.8
2015-Feb-27 10:33N 35°27' E 139°40'1 0.9
2015-Feb-27 09:33N 35°27' E 139°39'0 0.0
2015-Feb-27 08:33N 35°27' E 139°39'2 1.8
2015-Feb-27 07:34N 35°27' E 139°41'2 1.8
2015-Feb-27 06:33N 35°27' E 139°39'0 0.1
2015-Feb-27 05:33N 35°27' E 139°39'1 1.5
2015-Feb-27 04:34N 35°28' E 139°40'1 1.5
2015-Feb-27 03:33N 35°27' E 139°39'1 0.5
2015-Feb-27 02:33N 35°27' E 139°39'1 0.9
2015-Feb-27 01:33N 35°28' E 139°39'1 0.9
2015-Feb-27 00:34N 35°27' E 139°39'0 0.0
2015-Feb-26 12:24N 35°27' E 139°39'2 2.5
2015-Feb-26 11:33N 35°28' E 139°41'2 2.0
2015-Feb-26 10:34N 35°27' E 139°39'1 0.7
2015-Feb-26 09:34N 35°27' E 139°39'0 0.0
2015-Feb-26 08:33N 35°27' E 139°39'0 0.0
2015-Feb-26 07:33N 35°27' E 139°39'0 0.0
2015-Feb-26 06:34N 35°27' E 139°39'0 0.1
2015-Feb-26 05:34N 35°27' E 139°39'0 0.1
2015-Feb-26 04:34N 35°27' E 139°39'1 0.7
2015-Feb-26 03:33N 35°27' E 139°39'1 0.7
2015-Feb-26 02:34N 35°27' E 139°39'0 0.0
2015-Feb-26 01:34N 35°27' E 139°39'0 0.0
2015-Feb-26 00:34N 35°27' E 139°39'0 0.0
2015-Feb-25 12:33N 35°27' E 139°39'3 2.7
2015-Feb-25 11:34N 35°28' E 139°42'3 2.7
2015-Feb-25 10:34N 35°27' E 139°39'1 0.5
2015-Feb-25 09:34N 35°27' E 139°39'0 0.0
2015-Feb-25 08:34N 35°27' E 139°39'1 0.6
2015-Feb-25 07:34N 35°27' E 139°39'1 0.6
2015-Feb-25 06:34N 35°27' E 139°39'0 0.1
2015-Feb-25 05:34N 35°27' E 139°39'0 0.1
2015-Feb-25 04:34N 35°27' E 139°39'1 0.5
2015-Feb-25 03:34N 35°27' E 139°39'1 0.5
2015-Feb-25 02:34N 35°27' E 139°39'0 0.0
2015-Feb-25 01:34N 35°27' E 139°39'1 0.1
2015-Feb-24 11:33N 35°28' E 139°40'1 1.4
2015-Feb-24 10:33N 35°27' E 139°39'1 0.5
2015-Feb-24 09:33N 35°27' E 139°39'0 0.0
2015-Feb-24 08:33N 35°27' E 139°39'1 0.6
2015-Feb-24 07:33N 35°27' E 139°39'1 0.6
2015-Feb-24 06:33N 35°27' E 139°39'0 0.1
2015-Feb-24 05:33N 35°27' E 139°39'0 0.1
2015-Feb-24 04:33N 35°27' E 139°39'1 0.6
2015-Feb-24 03:33N 35°27' E 139°39'1 0.6
2015-Feb-24 02:33N 35°27' E 139°39'0 0.0
2015-Feb-24 01:33N 35°27' E 139°39'2 0.1
2015-Feb-23 11:34N 35°28' E 139°41'2 1.7
2015-Feb-23 10:34N 35°27' E 139°39'1 0.6
2015-Feb-23 09:34N 35°27' E 139°39'1 0.7
2015-Feb-23 08:34N 35°27' E 139°39'1 0.7
2015-Feb-23 07:34N 35°27' E 139°39'0 0.0
2015-Feb-23 06:34N 35°27' E 139°39'0 0.1
2015-Feb-23 05:34N 35°27' E 139°39'0 0.1
2015-Feb-23 04:34N 35°27' E 139°39'3 2.6
2015-Feb-23 03:34N 35°27' E 139°42'3 2.6
2015-Feb-23 02:34N 35°27' E 139°39'0 0.0
2015-Feb-23 01:34N 35°27' E 139°39'0 0.0
2015-Feb-22 12:32N 35°27' E 139°39'1 0.7
2015-Feb-22 11:33N 35°28' E 139°39'0 0.4
2015-Feb-22 10:34N 35°27' E 139°39'1 0.6
2015-Feb-22 09:34N 35°27' E 139°39'0 0.1
2015-Feb-22 08:34N 35°27' E 139°39'0 0.5
2015-Feb-22 07:34N 35°27' E 139°39'1 0.5
2015-Feb-22 06:33N 35°27' E 139°39'0 0.1
2015-Feb-22 05:33N 35°27' E 139°39'0 0.0
2015-Feb-22 04:33N 35°27' E 139°39'0 0.5
2015-Feb-22 03:34N 35°27' E 139°39'1 0.5
2015-Feb-22 02:34N 35°27' E 139°39'0 0.0
2015-Feb-22 01:34N 35°27' E 139°39'0 0.0
2015-Feb-22 00:34N 35°27' E 139°39'1 0.1
2015-Feb-21 12:33N 35°27' E 139°39'1 0.5
2015-Feb-21 11:34N 35°28' E 139°39'1 1.0
2015-Feb-21 10:33N 35°27' E 139°40'1 0.9
2015-Feb-21 09:33N 35°27' E 139°39'0 0.0
2015-Feb-21 08:33N 35°27' E 139°39'1 0.5
2015-Feb-21 07:34N 35°27' E 139°39'1 0.5
2015-Feb-21 06:33N 35°27' E 139°39'0 0.1
2015-Feb-21 05:34N 35°27' E 139°39'0 0.1
2015-Feb-21 04:33N 35°27' E 139°39'1 0.5
2015-Feb-21 03:34N 35°27' E 139°39'1 0.5
2015-Feb-21 02:33N 35°27' E 139°39'0 0.0
2015-Feb-21 01:33N 35°27' E 139°39'0 0.0
2015-Feb-21 00:33N 35°27' E 139°39'1 0.1
2015-Feb-20 11:33N 35°28' E 139°40'1 0.6
2015-Feb-20 10:33N 35°27' E 139°39'1 0.7
2015-Feb-20 09:33N 35°27' E 139°39'1 1.0
2015-Feb-20 08:33N 35°28' E 139°39'1 1.0
2015-Feb-20 07:33N 35°27' E 139°39'0 0.0
2015-Feb-20 06:33N 35°27' E 139°39'0 0.1
2015-Feb-20 05:33N 35°27' E 139°39'0 0.1
2015-Feb-20 04:33N 35°27' E 139°39'1 0.5
2015-Feb-20 03:33N 35°27' E 139°39'1 0.5
2015-Feb-20 02:33N 35°27' E 139°39'0 0.0
2015-Feb-20 01:33N 35°27' E 139°39'0 0.0
2015-Feb-20 00:33N 35°27' E 139°39'1 0.0
2015-Feb-19 12:33N 35°27' E 139°39'0 0.4
2015-Feb-19 11:33N 35°28' E 139°39'1 0.6
2015-Feb-19 10:33N 35°27' E 139°40'1 0.9
2015-Feb-19 09:33N 35°27' E 139°39'0 0.0
2015-Feb-19 08:33N 35°27' E 139°39'3 2.9
2015-Feb-19 07:33N 35°27' E 139°43'3 2.9
2015-Feb-19 06:33N 35°27' E 139°39'0 0.1
2015-Feb-19 05:33N 35°27' E 139°39'0 0.1
2015-Feb-19 04:33N 35°27' E 139°39'1 0.5
2015-Feb-19 03:34N 35°27' E 139°39'1 0.5
2015-Feb-19 02:33N 35°27' E 139°39'0 0.0
2015-Feb-19 01:33N 35°27' E 139°39'  
Track history (hours):
 
Tides and Currents Weather Stations Pressure Air Temp Water Temp Dewpoint Dewpoint Depression Visibility Wind Speed Wind Dir Waves Ship Positions

Marine Rouge

Last reported at 2015-Feb-28 12:33 UTC. Time now 2015-Feb-28 14:00 UTC.
Position N 35°27' E 139°39'.

Length 52 m; draft 2.8 m.

Type: Passenger vessel. MMSI: 431000518.

Date/timePositionNaut miles runAvg speedWind from/ knotsBaromVisibWave heightAir tempDewpointWater temp
2015-Feb-28 12:33N 35°27' E 139°39'2 1.6
2015-Feb-28 11:33N 35°28' E 139°41'1 1.4
2015-Feb-28 10:33N 35°27' E 139°39'1 0.7
2015-Feb-28 09:33N 35°27' E 139°39'1 1.2
2015-Feb-28 08:33N 35°28' E 139°40'1 1.2
2015-Feb-28 07:33N 35°27' E 139°39'1 0.5
2015-Feb-28 06:33N 35°27' E 139°39'0 0.0
2015-Feb-28 05:33N 35°27' E 139°39'0 0.0
2015-Feb-28 04:33N 35°27' E 139°39'1 0.5
2015-Feb-28 03:34N 35°27' E 139°39'1 0.5
2015-Feb-28 02:33N 35°27' E 139°39'0 0.0
2015-Feb-28 01:33N 35°27' E 139°39'0 0.0
2015-Feb-28 00:33N 35°27' E 139°39'1 0.1
2015-Feb-27 11:34N 35°28' E 139°39'1 0.8
2015-Feb-27 10:33N 35°27' E 139°40'1 0.9
2015-Feb-27 09:33N 35°27' E 139°39'0 0.0
2015-Feb-27 08:33N 35°27' E 139°39'2 1.8
2015-Feb-27 07:34N 35°27' E 139°41'2 1.8
2015-Feb-27 06:33N 35°27' E 139°39'0 0.1
2015-Feb-27 05:33N 35°27' E 139°39'1 1.5
2015-Feb-27 04:34N 35°28' E 139°40'1 1.5
2015-Feb-27 03:33N 35°27' E 139°39'1 0.5
2015-Feb-27 02:33N 35°27' E 139°39'1 0.9
2015-Feb-27 01:33N 35°28' E 139°39'1 0.9
2015-Feb-27 00:34N 35°27' E 139°39'0 0.0
2015-Feb-26 12:24N 35°27' E 139°39'2 2.5
2015-Feb-26 11:33N 35°28' E 139°41'2 2.0
2015-Feb-26 10:34N 35°27' E 139°39'1 0.7
2015-Feb-26 09:34N 35°27' E 139°39'0 0.0
2015-Feb-26 08:33N 35°27' E 139°39'0 0.0
2015-Feb-26 07:33N 35°27' E 139°39'0 0.0
2015-Feb-26 06:34N 35°27' E 139°39'0 0.1
2015-Feb-26 05:34N 35°27' E 139°39'0 0.1
2015-Feb-26 04:34N 35°27' E 139°39'1 0.7
2015-Feb-26 03:33N 35°27' E 139°39'1 0.7
2015-Feb-26 02:34N 35°27' E 139°39'0 0.0
2015-Feb-26 01:34N 35°27' E 139°39'0 0.0
2015-Feb-26 00:34N 35°27' E 139°39'0 0.0
2015-Feb-25 12:33N 35°27' E 139°39'3 2.7
2015-Feb-25 11:34N 35°28' E 139°42'3 2.7
2015-Feb-25 10:34N 35°27' E 139°39'1 0.5
2015-Feb-25 09:34N 35°27' E 139°39'0 0.0
2015-Feb-25 08:34N 35°27' E 139°39'1 0.6
2015-Feb-25 07:34N 35°27' E 139°39'1 0.6
2015-Feb-25 06:34N 35°27' E 139°39'0 0.1
2015-Feb-25 05:34N 35°27' E 139°39'0 0.1
2015-Feb-25 04:34N 35°27' E 139°39'1 0.5
2015-Feb-25 03:34N 35°27' E 139°39'1 0.5
2015-Feb-25 02:34N 35°27' E 139°39'0 0.0
2015-Feb-25 01:34N 35°27' E 139°39'1 0.1
2015-Feb-24 11:33N 35°28' E 139°40'1 1.4
2015-Feb-24 10:33N 35°27' E 139°39'1 0.5
2015-Feb-24 09:33N 35°27' E 139°39'0 0.0
2015-Feb-24 08:33N 35°27' E 139°39'1 0.6
2015-Feb-24 07:33N 35°27' E 139°39'1 0.6
2015-Feb-24 06:33N 35°27' E 139°39'0 0.1
2015-Feb-24 05:33N 35°27' E 139°39'0 0.1
2015-Feb-24 04:33N 35°27' E 139°39'1 0.6
2015-Feb-24 03:33N 35°27' E 139°39'1 0.6
2015-Feb-24 02:33N 35°27' E 139°39'0 0.0
2015-Feb-24 01:33N 35°27' E 139°39'2 0.1
2015-Feb-23 11:34N 35°28' E 139°41'2 1.7
2015-Feb-23 10:34N 35°27' E 139°39'1 0.6
2015-Feb-23 09:34N 35°27' E 139°39'1 0.7
2015-Feb-23 08:34N 35°27' E 139°39'1 0.7
2015-Feb-23 07:34N 35°27' E 139°39'0 0.0
2015-Feb-23 06:34N 35°27' E 139°39'0 0.1
2015-Feb-23 05:34N 35°27' E 139°39'0 0.1
2015-Feb-23 04:34N 35°27' E 139°39'3 2.6
2015-Feb-23 03:34N 35°27' E 139°42'3 2.6
2015-Feb-23 02:34N 35°27' E 139°39'0 0.0
2015-Feb-23 01:34N 35°27' E 139°39'0 0.0
2015-Feb-22 12:32N 35°27' E 139°39'1 0.7
2015-Feb-22 11:33N 35°28' E 139°39'0 0.4
2015-Feb-22 10:34N 35°27' E 139°39'1 0.6
2015-Feb-22 09:34N 35°27' E 139°39'0 0.1
2015-Feb-22 08:34N 35°27' E 139°39'0 0.5
2015-Feb-22 07:34N 35°27' E 139°39'1 0.5
2015-Feb-22 06:33N 35°27' E 139°39'0 0.1
2015-Feb-22 05:33N 35°27' E 139°39'0 0.0
2015-Feb-22 04:33N 35°27' E 139°39'0 0.5
2015-Feb-22 03:34N 35°27' E 139°39'1 0.5
2015-Feb-22 02:34N 35°27' E 139°39'0 0.0
2015-Feb-22 01:34N 35°27' E 139°39'0 0.0
2015-Feb-22 00:34N 35°27' E 139°39'1 0.1
2015-Feb-21 12:33N 35°27' E 139°39'1 0.5
2015-Feb-21 11:34N 35°28' E 139°39'1 1.0
2015-Feb-21 10:33N 35°27' E 139°40'1 0.9
2015-Feb-21 09:33N 35°27' E 139°39'0 0.0
2015-Feb-21 08:33N 35°27' E 139°39'1 0.5
2015-Feb-21 07:34N 35°27' E 139°39'1 0.5
2015-Feb-21 06:33N 35°27' E 139°39'0 0.1
2015-Feb-21 05:34N 35°27' E 139°39'0 0.1
2015-Feb-21 04:33N 35°27' E 139°39'1 0.5
2015-Feb-21 03:34N 35°27' E 139°39'1 0.5
2015-Feb-21 02:33N 35°27' E 139°39'0 0.0
2015-Feb-21 01:33N 35°27' E 139°39'0 0.0
2015-Feb-21 00:33N 35°27' E 139°39'1 0.1
2015-Feb-20 11:33N 35°28' E 139°40'1 0.6
2015-Feb-20 10:33N 35°27' E 139°39'1 0.7
2015-Feb-20 09:33N 35°27' E 139°39'1 1.0
2015-Feb-20 08:33N 35°28' E 139°39'1 1.0
2015-Feb-20 07:33N 35°27' E 139°39'0 0.0
2015-Feb-20 06:33N 35°27' E 139°39'0 0.1
2015-Feb-20 05:33N 35°27' E 139°39'0 0.1
2015-Feb-20 04:33N 35°27' E 139°39'1 0.5
2015-Feb-20 03:33N 35°27' E 139°39'1 0.5
2015-Feb-20 02:33N 35°27' E 139°39'0 0.0
2015-Feb-20 01:33N 35°27' E 139°39'0 0.0
2015-Feb-20 00:33N 35°27' E 139°39'1 0.0
2015-Feb-19 12:33N 35°27' E 139°39'0 0.4
2015-Feb-19 11:33N 35°28' E 139°39'1 0.6
2015-Feb-19 10:33N 35°27' E 139°40'1 0.9
2015-Feb-19 09:33N 35°27' E 139°39'0 0.0
2015-Feb-19 08:33N 35°27' E 139°39'3 2.9
2015-Feb-19 07:33N 35°27' E 139°43'3 2.9
2015-Feb-19 06:33N 35°27' E 139°39'0 0.1
2015-Feb-19 05:33N 35°27' E 139°39'0 0.1
2015-Feb-19 04:33N 35°27' E 139°39'1 0.5
2015-Feb-19 03:34N 35°27' E 139°39'1 0.5
2015-Feb-19 02:33N 35°27' E 139°39'0 0.0
2015-Feb-19 01:33N 35°27' E 139°39'  

Dump ship's entire track history